Time;durP1;ratioP1;P1;durP2;ratioP2;P2;SDS_P1;SDS_P2;PMS_P1;PMS_P2;Temp;Humidity;BMP_temperature;BMP_pressure;BME280_temperature;BME280_humidity;BME280_pressure;Samples;Min_cycle;Max_cycle;Signal;HPM_P1;HPM_P2
2023/11/14 00:02:09;;;;;;;0.17;0.17;;;;;;;15.35;60.30;100075.22;5051913;28;20021;-78
2023/11/14 00:04:36;;;;;;;1.23;1.23;;;;;;;15.28;60.34;100076.53;5050544;28;20017;-80
2023/11/14 00:07:02;;;;;;;0.20;0.20;;;;;;;15.38;60.55;100077.75;5057560;28;20029;-78
2023/11/14 00:09:29;;;;;;;0.10;0.10;;;;;;;15.29;60.33;100075.56;5054361;28;20048;-78
2023/11/14 00:11:56;;;;;;;0.77;0.25;;;;;;;15.23;60.80;100086.53;5046926;28;20036;-79
2023/11/14 00:14:23;;;;;;;0.10;0.10;;;;;;;15.30;60.54;100058.59;5054546;28;20040;-79
2023/11/14 00:16:49;;;;;;;0.90;0.82;;;;;;;15.31;60.22;100084.34;5055001;28;20030;-79
2023/11/14 00:19:15;;;;;;;28.08;1.38;;;;;;;15.23;60.78;100097.22;5057622;28;20051;-80
2023/11/14 00:21:41;;;;;;;0.10;0.10;;;;;;;15.35;60.46;100096.59;5053637;28;20025;-80
2023/11/14 00:24:09;;;;;;;0.30;0.30;;;;;;;15.35;60.27;100096.59;5059582;28;20033;-80
2023/11/14 00:26:35;;;;;;;0.05;0.05;;;;;;;15.30;60.45;100095.97;5052733;28;20491;-79
2023/11/14 00:29:01;;;;;;;0.10;0.10;;;;;;;15.19;60.25;100120.56;5058774;28;20087;-79
2023/11/14 00:31:28;;;;;;;0.30;0.30;;;;;;;15.12;60.55;100103.97;5051028;28;20029;-80
2023/11/14 00:33:54;;;;;;;0.47;0.47;;;;;;;15.30;60.31;100090.63;5052906;28;20033;-80
2023/11/14 00:36:20;;;;;;;0.20;0.20;;;;;;;15.30;60.23;100109.31;5052411;28;20029;-79
2023/11/14 00:38:47;;;;;;;0.30;0.30;;;;;;;15.07;60.61;100107.84;5056221;28;20033;-81
2023/11/14 00:41:13;;;;;;;2.90;1.65;;;;;;;15.22;60.36;100095.53;5059436;28;20417;-81
2023/11/14 00:43:39;;;;;;;19.50;2.33;;;;;;;15.13;60.19;100111.03;5061921;28;20227;-80
2023/11/14 00:46:12;;;;;;;0.40;0.32;;;;;;;15.23;60.11;100113.22;5061430;28;20540;-79
2023/11/14 00:48:39;;;;;;;;;;;;;;;15.27;59.81;100118.34;5065476;28;20318;-81
2023/11/14 00:51:05;;;;;;;0.15;0.15;;;;;;;15.11;60.02;100112.91;5061039;28;19911;-80
2023/11/14 00:53:31;;;;;;;0.10;0.10;;;;;;;15.09;60.10;100101.47;5056184;28;20040;-80
2023/11/14 00:55:57;;;;;;;0.20;0.20;;;;;;;15.17;60.03;100112.59;5062693;28;20061;-80
2023/11/14 00:58:24;;;;;;;0.57;0.57;;;;;;;15.23;59.88;100115.91;5055816;28;20212;-81
2023/11/14 01:00:50;;;;;;;0.10;0.10;;;;;;;15.16;59.86;100110.03;5061704;28;20083;-81
2023/11/14 01:03:18;;;;;;;0.10;0.10;;;;;;;15.20;59.63;100117.81;5059716;28;20021;-80
2023/11/14 01:05:46;;;;;;;3.53;3.33;;;;;;;15.34;59.60;100109.09;5064313;28;20023;-80
2023/11/14 01:08:12;;;;;;;5.55;1.02;;;;;;;15.34;59.43;100130.44;5058794;28;20029;-80
2023/11/14 01:10:39;;;;;;;1.00;1.00;;;;;;;15.24;59.86;100128.31;5053084;28;20026;-80
2023/11/14 01:13:05;;;;;;;0.03;0.03;;;;;;;15.36;59.21;100133.00;5060321;28;20020;-80
2023/11/14 01:15:31;;;;;;;1.45;0.95;;;;;;;15.29;59.74;100131.59;5050814;28;20059;-79
2023/11/14 01:17:57;;;;;;;0.90;0.90;;;;;;;15.30;59.65;100122.66;5063681;28;20037;-80
2023/11/14 01:20:24;;;;;;;0.10;0.10;;;;;;;15.48;59.16;100120.84;5054685;28;20026;-79
2023/11/14 01:22:50;;;;;;;0.10;0.10;;;;;;;15.31;59.49;100159.09;5068107;28;20014;-80
2023/11/14 01:25:16;;;;;;;0.10;0.10;;;;;;;15.47;59.25;100141.31;5065595;28;20039;-81
2023/11/14 01:27:44;;;;;;;0.10;0.10;;;;;;;15.46;59.33;100134.25;5049504;28;20496;-80
2023/11/14 01:30:12;;;;;;;0.10;0.10;;;;;;;15.48;59.06;100152.88;5048198;28;20059;-78
2023/11/14 01:32:38;;;;;;;0.32;0.32;;;;;;;15.23;59.68;100146.13;5046868;28;20021;-79
2023/11/14 01:35:05;;;;;;;3.28;3.00;;;;;;;15.41;59.39;100136.31;5056993;28;20504;-78
2023/11/14 01:37:32;;;;;;;5.47;3.33;;;;;;;15.34;59.45;100148.28;5055936;28;20033;-78
2023/11/14 01:39:58;;;;;;;0.50;0.50;;;;;;;15.55;59.18;100158.75;5056530;28;20032;-79
2023/11/14 01:42:24;;;;;;;0.20;0.20;;;;;;;15.38;59.64;100136.47;5049584;28;20029;-79
2023/11/14 01:44:51;;;;;;;0.10;0.10;;;;;;;15.40;59.36;100133.72;5061835;28;20062;-79
2023/11/14 01:47:17;;;;;;;0.38;0.38;;;;;;;15.35;59.27;100152.63;5052254;28;20029;-79
2023/11/14 01:49:45;;;;;;;1.08;0.98;;;;;;;15.37;59.47;100161.44;5055827;28;20025;-78
2023/11/14 01:52:12;;;;;;;0.52;0.52;;;;;;;15.18;59.88;100172.19;5058206;28;20032;-78
2023/11/14 01:54:40;;;;;;;0.10;0.10;;;;;;;15.37;59.64;100172.13;5054922;28;20032;-80
2023/11/14 01:57:10;;;;;;;0.10;0.10;;;;;;;15.27;60.08;100182.38;5061322;28;20029;-78
2023/11/14 01:59:37;;;;;;;1.40;1.30;;;;;;;15.44;59.70;100204.69;5059207;28;20622;-79
2023/11/14 02:02:04;;;;;;;1.17;1.17;;;;;;;15.32;59.94;100191.03;5056547;28;20036;-79
2023/11/14 02:04:32;;;;;;;0.20;0.20;;;;;;;15.42;59.69;100194.09;5050175;28;20064;-79
2023/11/14 02:06:59;;;;;;;4.78;3.53;;;;;;;15.40;59.75;100198.63;5048995;28;20033;-78
2023/11/14 02:09:27;;;;;;;0.45;0.45;;;;;;;15.37;59.76;100215.69;5058352;28;20395;-79
2023/11/14 02:11:54;;;;;;;0.10;0.10;;;;;;;15.29;59.81;100180.53;5057377;28;20047;-80
2023/11/14 02:14:20;;;;;;;0.63;0.63;;;;;;;15.35;59.97;100190.88;5054953;28;20040;-78
2023/11/14 02:19:23;;;;;;;0.10;0.10;;;;;;;15.31;60.19;100199.97;5112320;27;20407;-80
2023/11/14 02:21:51;;;;;;;0.10;0.10;;;;;;;15.18;60.08;100194.38;5105862;28;20032;-79
2023/11/14 02:24:19;;;;;;;0.10;0.10;;;;;;;15.35;60.06;100196.22;5110877;28;20527;-79
2023/11/14 02:26:48;;;;;;;0.70;0.70;;;;;;;15.35;60.21;100206.03;5112238;27;20044;-81
2023/11/14 02:29:19;;;;;;;0.35;0.35;;;;;;;15.35;60.40;100198.00;5103037;28;20024;-80
2023/11/14 02:31:47;;;;;;;0.05;0.05;;;;;;;15.43;59.74;100186.97;5108300;28;20769;-79
2023/11/14 02:34:13;;;;;;;0.10;0.10;;;;;;;15.53;59.55;100205.09;5109319;28;20047;-80
2023/11/14 02:36:39;;;;;;;0.10;0.10;;;;;;;15.28;60.54;100209.97;5105683;28;20038;-80
2023/11/14 02:39:07;;;;;;;1.98;1.65;;;;;;;15.35;60.37;100216.69;5110010;28;20024;-79
2023/11/14 02:41:35;;;;;;;16.55;1.27;;;;;;;15.47;59.99;100212.56;5107707;28;20445;-79
2023/11/14 02:44:01;;;;;;;0.40;0.40;;;;;;;15.33;60.33;100197.25;5105634;28;20032;-79
2023/11/14 02:46:27;;;;;;;0.20;0.20;;;;;;;15.25;60.37;100210.94;5111147;28;20055;-79
2023/11/14 02:48:54;;;;;;;0.20;0.20;;;;;;;15.23;60.85;100207.50;5101581;28;20032;-80
2023/11/14 02:51:20;;;;;;;0.10;0.10;;;;;;;15.41;60.46;100218.22;5106392;28;20061;-80
2023/11/14 02:53:46;;;;;;;0.40;0.40;;;;;;;15.34;60.21;100223.84;5113887;28;20114;-80
2023/11/14 02:56:13;;;;;;;0.10;0.10;;;;;;;15.44;60.12;100229.59;5114806;28;20036;-78
2023/11/14 02:58:39;;;;;;;0.40;0.40;;;;;;;15.27;60.76;100216.22;5109398;28;20025;-78
2023/11/14 03:01:05;;;;;;;0.10;0.10;;;;;;;15.44;60.46;100220.72;5105948;28;20050;-78
2023/11/14 03:03:31;;;;;;;0.10;0.10;;;;;;;15.43;59.95;100221.69;5106661;28;20032;-78
2023/11/14 03:06:00;;;;;;;0.10;0.10;;;;;;;15.39;60.33;100238.75;5107040;28;20552;-79
2023/11/14 03:08:26;;;;;;;0.25;0.25;;;;;;;15.33;60.36;100226.59;5107033;28;20028;-79
2023/11/14 03:10:53;;;;;;;0.10;0.10;;;;;;;15.19;60.90;100260.16;5105996;28;20053;-79
2023/11/14 03:13:19;;;;;;;0.10;0.10;;;;;;;15.30;60.65;100245.44;5109556;28;20401;-80
2023/11/14 03:15:45;;;;;;;27.95;1.38;;;;;;;15.29;60.94;100235.69;5114962;28;20042;-80
2023/11/14 03:18:11;;;;;;;9.18;4.00;;;;;;;15.14;60.99;100254.19;5107894;28;20075;-79
2023/11/14 03:20:37;;;;;;;0.10;0.10;;;;;;;15.18;61.30;100246.91;5110309;28;20032;-79
2023/11/14 03:23:04;;;;;;;0.20;0.20;;;;;;;15.28;60.61;100247.31;5108334;28;20035;-79
2023/11/14 03:25:30;;;;;;;0.10;0.10;;;;;;;15.22;60.95;100242.28;5106622;28;20033;-79
2023/11/14 03:27:58;;;;;;;1.23;1.02;;;;;;;15.27;60.69;100238.44;5102057;28;20457;-79
2023/11/14 03:30:24;;;;;;;0.60;0.60;;;;;;;15.40;60.49;100264.53;5093230;28;20407;-79
2023/11/14 03:32:50;;;;;;;0.10;0.10;;;;;;;15.41;60.68;100243.09;5093255;28;20028;-78
2023/11/14 03:35:17;;;;;;;0.45;0.45;;;;;;;15.36;60.64;100245.13;5097437;28;20028;-79
2023/11/14 03:37:43;;;;;;;0.10;0.10;;;;;;;15.40;60.19;100246.69;5091617;28;20056;-78
2023/11/14 03:40:10;;;;;;;0.17;0.17;;;;;;;15.41;60.44;100253.75;5097381;28;20036;-77
2023/11/14 03:42:36;;;;;;;3.13;2.65;;;;;;;15.26;60.41;100257.19;5103623;28;20121;-79
2023/11/14 03:45:04;;;;;;;0.98;0.98;;;;;;;15.24;60.70;100235.06;5098583;28;20028;-79
2023/11/14 03:47:30;;;;;;;0.98;0.98;;;;;;;15.29;60.86;100255.25;5100460;28;20063;-80
2023/11/14 03:49:56;;;;;;;0.10;0.10;;;;;;;15.16;60.73;100260.31;5092368;28;20111;-79
2023/11/14 03:52:22;;;;;;;0.75;0.75;;;;;;;15.23;60.48;100265.34;5101080;28;20028;-79
2023/11/14 03:54:48;;;;;;;8.43;2.17;;;;;;;15.35;60.38;100260.28;5101544;28;20024;-79
2023/11/14 03:57:15;;;;;;;0.10;0.10;;;;;;;15.30;60.59;100261.44;5103930;28;20066;-79
2023/11/14 03:59:41;;;;;;;12.35;1.40;;;;;;;15.22;60.73;100258.31;5104263;28;20047;-80
2023/11/14 04:02:07;;;;;;;0.10;0.10;;;;;;;15.24;60.57;100251.06;5102221;28;20027;-81
2023/11/14 04:04:33;;;;;;;1.38;1.27;;;;;;;15.26;60.59;100249.19;5100782;28;20089;-81
2023/11/14 04:06:59;;;;;;;0.10;0.10;;;;;;;15.17;60.59;100267.38;5097343;28;20474;-80
2023/11/14 04:09:25;;;;;;;1.52;0.88;;;;;;;15.17;61.12;100248.69;5100122;28;20040;-79
2023/11/14 04:11:51;;;;;;;0.98;0.98;;;;;;;15.16;60.89;100249.63;5100134;28;20032;-81
2023/11/14 04:14:18;;;;;;;0.10;0.10;;;;;;;15.05;61.33;100259.97;5100296;28;20515;-79
2023/11/14 04:16:44;;;;;;;0.20;0.20;;;;;;;15.06;61.37;100252.84;5101098;28;20056;-80
2023/11/14 04:19:10;;;;;;;1.45;1.20;;;;;;;14.96;61.61;100257.75;5100293;28;20617;-78
2023/11/14 04:21:36;;;;;;;0.20;0.20;;;;;;;15.03;61.28;100265.38;5095305;28;20091;-81
2023/11/14 04:24:02;;;;;;;0.95;0.93;;;;;;;15.09;61.31;100258.00;5094448;28;20032;-80
2023/11/14 04:26:30;;;;;;;0.98;0.85;;;;;;;14.90;61.86;100266.03;5094804;28;20395;-80
2023/11/14 04:28:56;;;;;;;0.10;0.10;;;;;;;14.90;62.09;100266.03;5099452;28;20081;-79
2023/11/14 04:31:22;;;;;;;5.57;3.25;;;;;;;14.94;62.02;100252.50;5101742;28;20419;-79
2023/11/14 04:33:49;;;;;;;8.48;3.72;;;;;;;14.93;61.96;100281.88;5102181;28;20031;-79
2023/11/14 04:36:15;;;;;;;0.55;0.55;;;;;;;14.90;62.13;100263.38;5101583;28;20039;-80
2023/11/14 04:38:41;;;;;;;1.67;1.55;;;;;;;14.97;62.04;100262.16;5100650;28;20080;-80
2023/11/14 04:41:07;;;;;;;0.13;0.13;;;;;;;14.97;61.99;100264.81;5097864;28;20048;-80
2023/11/14 04:43:33;;;;;;;0.10;0.10;;;;;;;14.93;62.08;100260.53;5104382;28;20027;-78
2023/11/14 04:46:00;;;;;;;5.95;1.58;;;;;;;14.94;61.89;100267.59;5096706;28;20032;-80
2023/11/14 04:48:26;;;;;;;0.08;0.08;;;;;;;14.94;62.30;100271.16;5094885;28;20064;-80
2023/11/14 04:50:52;;;;;;;0.00;0.00;;;;;;;15.08;61.70;100259.81;5093399;28;20113;-79
2023/11/14 04:53:18;;;;;;;0.10;0.10;;;;;;;15.13;61.76;100268.47;5095090;28;20024;-79
2023/11/14 04:55:44;;;;;;;5.57;0.88;;;;;;;15.23;61.09;100260.00;5096644;28;20066;-79
2023/11/14 04:58:10;;;;;;;0.10;0.10;;;;;;;15.01;61.85;100261.06;5096839;28;20055;-79
2023/11/14 05:00:36;;;;;;;8.52;2.58;;;;;;;14.98;62.07;100271.88;5095504;28;20036;-80
2023/11/14 05:03:05;;;;;;;0.00;0.00;;;;;;;15.08;61.84;100265.16;5090919;28;20024;-80
2023/11/14 05:05:32;;;;;;;0.15;0.15;;;;;;;15.11;61.72;100282.81;5099277;28;20052;-79
2023/11/14 05:07:58;;;;;;;0.10;0.10;;;;;;;15.24;61.17;100288.44;5091386;28;20024;-81
2023/11/14 05:10:25;;;;;;;1.33;1.25;;;;;;;15.11;61.36;100298.84;5090439;28;20047;-80
2023/11/14 05:12:51;;;;;;;0.30;0.30;;;;;;;15.18;61.48;100301.13;5098802;28;20043;-80
2023/11/14 05:15:17;;;;;;;2.17;0.98;;;;;;;15.10;61.19;100289.94;5096586;28;20503;-79
2023/11/14 05:17:43;;;;;;;0.10;0.10;;;;;;;15.12;61.15;100290.75;5095912;28;20104;-79
2023/11/14 05:20:11;;;;;;;0.13;0.13;;;;;;;15.17;61.17;100278.03;5100981;28;20028;-79
2023/11/14 05:22:38;;;;;;;0.25;0.25;;;;;;;15.11;61.04;100294.34;5103639;28;20380;-80
2023/11/14 05:25:05;;;;;;;1.63;1.55;;;;;;;15.11;61.37;100270.34;5105852;28;20064;-80
2023/11/14 05:27:32;;;;;;;0.13;0.13;;;;;;;15.15;61.40;100282.59;5105100;28;20030;-79
2023/11/14 05:29:58;;;;;;;0.10;0.10;;;;;;;15.22;61.15;100284.97;5100147;28;20390;-80
2023/11/14 05:32:25;;;;;;;1.25;1.15;;;;;;;15.09;61.39;100298.91;5102218;28;20051;-79
2023/11/14 05:34:51;;;;;;;0.50;0.45;;;;;;;15.18;61.15;100282.44;5100777;28;20051;-80
2023/11/14 05:37:17;;;;;;;0.95;0.95;;;;;;;15.25;61.09;100274.16;5101827;28;20028;-80
2023/11/14 05:39:43;;;;;;;0.10;0.10;;;;;;;15.17;61.15;100269.19;5099981;28;20032;-78
2023/11/14 05:42:09;;;;;;;0.10;0.10;;;;;;;15.27;60.80;100290.97;5104019;28;20042;-78
2023/11/14 05:44:36;;;;;;;0.30;0.30;;;;;;;15.35;60.78;100292.31;5105537;28;20032;-78
2023/11/14 05:47:02;;;;;;;0.10;0.10;;;;;;;15.22;61.19;100288.50;5098289;28;20032;-78
2023/11/14 05:49:28;;;;;;;3.00;2.80;;;;;;;15.20;61.05;100288.59;5101884;28;20117;-80
2023/11/14 05:51:55;;;;;;;0.77;0.77;;;;;;;15.31;60.88;100289.88;5105316;28;20404;-80
2023/11/14 05:54:21;;;;;;;0.20;0.20;;;;;;;15.11;61.28;100304.16;5102831;28;20514;-79
2023/11/14 05:56:47;;;;;;;1.58;1.48;;;;;;;15.13;61.52;100316.50;5102393;28;20032;-79
2023/11/14 05:59:13;;;;;;;0.20;0.20;;;;;;;15.10;61.79;100297.94;5093767;28;20081;-79
2023/11/14 06:01:39;;;;;;;0.08;0.08;;;;;;;15.18;61.22;100316.28;5101524;28;20036;-79
2023/11/14 06:04:07;;;;;;;0.10;0.10;;;;;;;15.24;61.27;100320.44;5101198;28;20229;-79
2023/11/14 06:06:33;;;;;;;0.20;0.20;;;;;;;15.17;61.33;100315.41;5099390;28;20029;-77
2023/11/14 06:08:59;;;;;;;0.28;0.28;;;;;;;15.15;61.47;100335.97;5102826;28;20032;-78
2023/11/14 06:11:25;;;;;;;2.95;2.28;;;;;;;15.03;61.85;100329.41;5100272;28;20055;-79
2023/11/14 06:13:51;;;;;;;0.90;0.90;;;;;;;15.17;61.45;100346.56;5099489;28;20158;-79
2023/11/14 06:16:18;;;;;;;0.80;0.80;;;;;;;15.30;61.07;100336.16;5092733;28;20097;-79
2023/11/14 06:18:44;;;;;;;0.10;0.10;;;;;;;15.33;61.00;100341.38;5092641;28;20032;-78
2023/11/14 06:21:10;;;;;;;2.60;2.40;;;;;;;15.22;61.21;100341.88;5093147;28;20088;-78
2023/11/14 06:23:37;;;;;;;0.63;0.63;;;;;;;15.21;61.39;100332.13;5094187;28;20043;-78
2023/11/14 06:26:04;;;;;;;3.60;0.75;;;;;;;14.92;61.87;100347.72;5092928;28;20046;-79
2023/11/14 06:28:30;;;;;;;0.10;0.10;;;;;;;15.16;61.50;100332.34;5086145;28;20039;-78
2023/11/14 06:30:57;;;;;;;0.17;0.17;;;;;;;15.29;60.86;100327.31;5098397;28;20036;-78
2023/11/14 06:33:23;;;;;;;3.55;3.35;;;;;;;15.08;61.23;100325.66;5089649;28;20040;-80
2023/11/14 06:35:52;;;;;;;0.10;0.10;;;;;;;15.30;61.03;100325.50;5089396;28;20078;-79
2023/11/14 06:38:18;;;;;;;4.75;3.30;;;;;;;15.28;60.92;100335.41;5091228;28;20557;-80
2023/11/14 06:40:45;;;;;;;0.10;0.10;;;;;;;15.31;61.27;100335.22;5088143;28;20029;-80
2023/11/14 06:43:11;;;;;;;0.10;0.10;;;;;;;15.24;61.40;100328.44;5091608;28;20032;-81
2023/11/14 06:45:37;;;;;;;30.52;2.15;;;;;;;15.18;61.64;100324.28;5092712;28;20037;-80
2023/11/14 06:48:04;;;;;;;5.72;3.10;;;;;;;15.04;61.55;100327.59;5101200;28;20133;-80
2023/11/14 06:50:30;;;;;;;0.35;0.35;;;;;;;15.28;61.35;100324.72;5088206;28;20040;-79
2023/11/14 06:52:56;;;;;;;0.10;0.10;;;;;;;15.17;61.26;100326.06;5090761;28;20066;-81
2023/11/14 06:55:22;;;;;;;2.25;1.45;;;;;;;15.26;61.33;100326.59;5086098;28;20044;-80
2023/11/14 06:57:50;;;;;;;0.10;0.10;;;;;;;15.24;61.25;100336.47;5092811;28;20013;-80
2023/11/14 07:00:17;;;;;;;0.30;0.30;;;;;;;15.10;61.89;100355.78;5087884;28;20091;-79
2023/11/14 07:02:43;;;;;;;0.55;0.55;;;;;;;14.99;62.67;100353.63;5083690;28;20032;-81
2023/11/14 07:05:09;;;;;;;0.10;0.10;;;;;;;14.95;62.91;100358.22;5089967;28;20035;-81
2023/11/14 07:07:38;;;;;;;0.30;0.30;;;;;;;14.96;62.91;100364.44;5095338;28;20032;-81
2023/11/14 07:10:06;;;;;;;1.17;1.17;;;;;;;14.94;63.05;100360.97;5090170;28;20031;-80
2023/11/14 07:12:32;;;;;;;0.10;0.10;;;;;;;14.92;63.08;100357.53;5097380;28;20144;-80
2023/11/14 07:14:58;;;;;;;1.75;0.80;;;;;;;14.92;63.40;100365.53;5102990;28;20066;-81
2023/11/14 07:17:24;;;;;;;1.85;1.27;;;;;;;14.96;63.13;100359.09;5097011;28;20032;-80
2023/11/14 07:19:51;;;;;;;0.40;0.40;;;;;;;14.91;63.02;100351.31;5092990;28;20024;-80
2023/11/14 07:22:17;;;;;;;0.10;0.10;;;;;;;15.08;62.97;100369.22;5097730;28;20532;-80
2023/11/14 07:24:43;;;;;;;2.08;1.42;;;;;;;15.01;63.17;100357.09;5091595;28;20726;-81
2023/11/14 07:27:09;;;;;;;0.28;0.28;;;;;;;15.04;62.92;100360.50;5103415;28;20028;-81
2023/11/14 07:29:35;;;;;;;0.20;0.20;;;;;;;15.08;62.69;100363.88;5096133;28;20459;-81
2023/11/14 07:32:02;;;;;;;3.03;1.77;;;;;;;15.06;63.65;100344.41;5094182;28;20053;-81
2023/11/14 07:34:28;;;;;;;0.10;0.10;;;;;;;15.15;63.52;100351.09;5090543;28;20024;-80
2023/11/14 07:36:54;;;;;;;0.35;0.35;;;;;;;15.03;63.78;100360.56;5090939;28;20063;-81
2023/11/14 07:39:23;;;;;;;4.38;3.08;;;;;;;15.04;63.64;100356.94;5094158;28;20073;-80
2023/11/14 07:41:50;;;;;;;0.98;0.55;;;;;;;14.98;63.53;100346.56;5090126;28;20110;-79
2023/11/14 07:44:17;;;;;;;0.10;0.10;;;;;;;14.99;63.84;100356.28;5088427;28;20098;-79
2023/11/14 07:46:44;;;;;;;0.10;0.10;;;;;;;14.96;63.71;100359.09;5098672;28;20059;-80
2023/11/14 07:49:11;;;;;;;0.10;0.10;;;;;;;14.95;64.48;100362.72;5088184;28;20024;-81
2023/11/14 07:51:37;;;;;;;0.30;0.30;;;;;;;14.90;65.51;100349.56;5097627;28;20491;-81
2023/11/14 07:54:03;;;;;;;0.10;0.10;;;;;;;14.88;65.77;100360.31;5087089;28;20041;-80
2023/11/14 07:56:30;;;;;;;0.50;0.50;;;;;;;14.82;65.88;100352.59;5097418;28;20044;-79
2023/11/14 07:58:56;;;;;;;0.30;0.30;;;;;;;14.71;66.34;100354.88;5103860;28;20032;-80
2023/11/14 08:01:22;;;;;;;0.10;0.10;;;;;;;14.66;66.30;100349.75;5087814;28;20036;-80
2023/11/14 08:03:49;;;;;;;0.10;0.10;;;;;;;14.54;66.51;100351.16;5098802;28;20403;-80
2023/11/14 08:06:15;;;;;;;2.13;2.03;;;;;;;14.63;66.20;100352.53;5094202;28;20087;-79
2023/11/14 08:08:44;;;;;;;0.10;0.10;;;;;;;14.64;66.00;100351.63;5097524;28;20021;-79
2023/11/14 08:11:11;;;;;;;0.10;0.10;;;;;;;14.71;65.90;100355.75;5095800;28;20092;-81
2023/11/14 08:13:37;;;;;;;0.52;0.52;;;;;;;14.71;65.91;100350.41;5086923;28;20029;-80
2023/11/14 08:16:04;;;;;;;0.20;0.20;;;;;;;14.63;66.02;100351.66;5089949;28;20028;-80
2023/11/14 08:18:30;;;;;;;0.30;0.30;;;;;;;14.84;65.33;100344.53;5089109;28;20028;-79
2023/11/14 08:20:56;;;;;;;0.10;0.10;;;;;;;14.79;65.30;100352.75;5088422;28;20040;-80
2023/11/14 08:23:22;;;;;;;0.10;0.10;;;;;;;14.84;65.50;100350.75;5092340;28;20051;-80
2023/11/14 08:25:49;;;;;;;0.50;0.50;;;;;;;14.87;65.08;100342.59;5092685;28;20032;-78
2023/11/14 08:28:15;;;;;;;0.10;0.10;;;;;;;14.96;64.98;100346.63;5088254;28;20020;-79
2023/11/14 08:30:41;;;;;;;2.28;1.15;;;;;;;14.83;64.92;100354.34;5082472;28;20071;-80
2023/11/14 08:33:07;;;;;;;1.00;1.00;;;;;;;14.88;65.06;100340.78;5093930;28;20491;-80
2023/11/14 08:35:33;;;;;;;0.10;0.10;;;;;;;14.85;64.99;100349.81;5090749;28;20528;-80
2023/11/14 08:38:00;;;;;;;0.20;0.20;;;;;;;14.87;64.60;100333.72;5086632;28;20028;-80
2023/11/14 08:40:28;;;;;;;0.13;0.13;;;;;;;14.84;64.53;100333.84;5092332;28;20054;-79
2023/11/14 08:42:55;;;;;;;0.10;0.10;;;;;;;14.82;64.26;100346.41;5089029;28;20035;-80
2023/11/14 08:45:21;;;;;;;2.45;1.98;;;;;;;14.89;64.42;100350.50;5094907;28;20560;-80
2023/11/14 08:47:48;;;;;;;0.90;0.90;;;;;;;14.91;64.18;100345.13;5099322;28;20030;-80
2023/11/14 08:50:15;;;;;;;0.10;0.10;;;;;;;14.86;64.13;100348.84;5098699;28;20052;-79
2023/11/14 08:52:41;;;;;;;0.95;0.95;;;;;;;14.95;63.81;100358.22;5096842;28;20084;-80
2023/11/14 08:55:07;;;;;;;0.10;0.10;;;;;;;15.09;63.44;100348.72;5083872;28;20020;-80
2023/11/14 08:57:34;;;;;;;0.10;0.10;;;;;;;15.09;63.57;100370.94;5088066;28;20117;-81
2023/11/14 09:00:00;;;;;;;0.40;0.40;;;;;;;15.18;63.41;100367.84;5082949;28;20092;-79
2023/11/14 09:02:27;;;;;;;0.10;0.10;;;;;;;15.24;62.89;100356.03;5094066;28;20028;-79
2023/11/14 09:04:56;;;;;;;0.73;0.73;;;;;;;15.26;62.86;100361.28;5094387;28;20043;-80
2023/11/14 09:07:22;;;;;;;0.10;0.10;;;;;;;15.33;62.82;100362.72;5096557;28;20032;-78
2023/11/14 09:09:48;;;;;;;0.35;0.35;;;;;;;15.30;62.43;100360.19;5096095;28;20020;-80
2023/11/14 09:12:14;;;;;;;0.10;0.10;;;;;;;15.37;62.38;100361.63;5091021;28;20024;-78
2023/11/14 09:14:40;;;;;;;0.73;0.73;;;;;;;15.48;62.20;100359.31;5094123;28;20035;-80
2023/11/14 09:17:08;;;;;;;0.10;0.10;;;;;;;15.65;61.82;100362.97;5085186;28;20031;-80
2023/11/14 09:19:34;;;;;;;4.03;1.40;;;;;;;15.62;61.33;100363.13;5092230;28;20020;-78
2023/11/14 09:22:01;;;;;;;1.75;1.65;;;;;;;15.64;61.58;100359.44;5091405;28;20024;-79
2023/11/14 09:24:27;;;;;;;0.93;0.93;;;;;;;15.58;61.39;100362.41;5086849;28;20496;-80
2023/11/14 09:26:56;;;;;;;0.10;0.10;;;;;;;15.59;60.93;100363.25;5091956;28;20043;-79
2023/11/14 09:29:22;;;;;;;0.10;0.10;;;;;;;15.57;61.35;100365.16;5083433;28;20666;-81
2023/11/14 09:31:48;;;;;;;0.40;0.40;;;;;;;15.70;61.19;100355.59;5089672;28;20099;-80
2023/11/14 09:34:14;;;;;;;0.95;0.95;;;;;;;15.85;61.08;100365.56;5090348;28;20028;-81
2023/11/14 09:36:40;;;;;;;0.10;0.10;;;;;;;15.99;60.92;100366.69;5089607;28;20025;-81
2023/11/14 09:39:07;;;;;;;0.10;0.10;;;;;;;15.96;60.67;100378.38;5090883;28;20069;-80
2023/11/14 09:41:34;;;;;;;0.10;0.10;;;;;;;16.15;60.11;100372.97;5083204;28;20036;-81
2023/11/14 09:44:01;;;;;;;0.10;0.10;;;;;;;16.05;59.38;100374.41;5095474;28;20027;-81
2023/11/14 09:46:31;;;;;;;0.82;0.82;;;;;;;16.15;59.39;100362.28;5093459;28;20101;-81
2023/11/14 09:49:02;;;;;;;0.40;0.40;;;;;;;16.28;59.14;100375.03;5085076;28;20016;-81
2023/11/14 09:51:31;;;;;;;3.22;2.92;;;;;;;16.13;58.52;100401.56;5089354;28;20148;-79
2023/11/14 09:54:02;;;;;;;0.10;0.10;;;;;;;16.20;58.89;100370.06;5086261;28;20099;-81
2023/11/14 09:56:29;;;;;;;1.90;1.67;;;;;;;16.09;59.46;100373.28;5089229;28;20515;-81
2023/11/14 09:58:56;;;;;;;0.10;0.10;;;;;;;16.08;59.04;100370.69;5088622;28;20020;-80
2023/11/14 10:01:23;;;;;;;1.90;0.98;;;;;;;16.06;59.27;100373.41;5090036;28;20028;-81
2023/11/14 10:03:49;;;;;;;1.42;1.33;;;;;;;16.17;59.58;100360.41;5091704;28;20028;-79
2023/11/14 10:06:15;;;;;;;0.10;0.10;;;;;;;16.10;59.54;100360.78;5084819;28;20051;-81
2023/11/14 10:08:42;;;;;;;0.10;0.10;;;;;;;16.20;59.69;100371.88;5090580;28;20016;-81
2023/11/14 10:11:10;;;;;;;0.47;0.47;;;;;;;16.18;59.08;100370.13;5087691;28;20111;-78
2023/11/14 10:13:38;;;;;;;0.10;0.10;;;;;;;16.24;58.85;100376.13;5094941;28;20028;-80
2023/11/14 10:16:20;;;;;;;0.15;0.15;;;;;;;16.31;59.41;100362.38;5082835;28;20020;-79
2023/11/14 10:18:48;;;;;;;;;;;;;;;16.28;58.46;100369.69;5097072;28;20032;-80
2023/11/14 10:21:26;;;;;;;9.95;1.20;;;;;;;16.18;59.52;100370.13;5088129;28;19919;-79
2023/11/14 10:23:55;;;;;;;0.45;0.45;;;;;;;16.20;59.31;100370.06;5091237;28;20502;-79
2023/11/14 10:26:22;;;;;;;23.38;1.25;;;;;;;16.13;59.17;100369.50;5088982;28;20036;-79
2023/11/14 10:28:57;;;;;;;0.10;0.10;;;;;;;16.22;58.82;100359.31;5085246;28;20024;-80
2023/11/14 10:31:40;;;;;;;0.40;0.40;;;;;;;16.30;58.67;100357.97;5089564;28;20043;-79
2023/11/14 10:34:08;;;;;;;0.68;0.68;;;;;;;16.22;58.63;100364.66;5086966;28;20034;-80
2023/11/14 10:36:50;;;;;;;1.17;1.13;;;;;;;16.35;58.91;100352.38;5089100;28;20048;-79
2023/11/14 10:39:16;;;;;;;0.22;0.22;;;;;;;16.18;59.48;100359.44;5094605;28;20032;-78
2023/11/14 10:41:42;;;;;;;0.20;0.20;;;;;;;16.11;59.69;100355.38;5091869;28;20043;-79
2023/11/14 10:44:12;;;;;;;0.30;0.30;;;;;;;16.30;59.55;100351.75;5097554;28;20032;-80
2023/11/14 10:46:46;;;;;;;2.35;2.15;;;;;;;16.01;59.58;100348.75;5087581;28;20031;-79
2023/11/14 10:49:13;;;;;;;0.13;0.13;;;;;;;16.26;59.83;100368.88;5099735;28;20024;-79
2023/11/14 10:51:42;;;;;;;0.10;0.10;;;;;;;16.25;59.33;100352.00;5089346;28;20020;-78
2023/11/14 10:54:09;;;;;;;20.35;1.75;;;;;;;15.91;60.92;100358.19;5085678;28;20021;-77
2023/11/14 10:56:36;;;;;;;0.40;0.40;;;;;;;16.16;60.20;100358.69;5089528;28;20034;-79
2023/11/14 10:59:05;;;;;;;0.10;0.10;;;;;;;16.36;60.22;100346.06;5089637;28;20020;-79
2023/11/14 11:01:33;;;;;;;1.33;1.33;;;;;;;16.39;60.16;100347.75;5082925;28;20062;-79
2023/11/14 11:04:00;;;;;;;0.40;0.40;;;;;;;16.37;60.05;100334.44;5090698;28;20499;-79
2023/11/14 11:06:26;;;;;;;0.10;0.10;;;;;;;16.44;60.27;100330.50;5094072;28;20039;-79
2023/11/14 11:08:54;;;;;;;1.85;1.75;;;;;;;16.30;61.48;100335.72;5099169;28;20031;-79
2023/11/14 11:11:29;;;;;;;0.20;0.20;;;;;;;16.56;60.89;100334.34;5090995;28;20033;-80
2023/11/14 11:13:57;;;;;;;1.13;1.02;;;;;;;16.49;61.61;100322.25;5100327;28;20047;-80
2023/11/14 11:16:45;;;;;;;1.13;1.10;;;;;;;16.49;61.53;100317.75;5085707;28;20098;-81
2023/11/14 11:19:24;;;;;;;0.82;0.82;;;;;;;16.44;62.29;100310.94;5087838;28;20052;-80
2023/11/14 11:22:10;;;;;;;0.90;0.90;;;;;;;16.52;62.02;100326.56;5096184;28;20060;-80
2023/11/14 11:24:37;;;;;;;0.20;0.20;;;;;;;16.44;62.79;100311.78;5096480;28;20036;-79
2023/11/14 11:27:21;;;;;;;0.98;0.90;;;;;;;16.48;62.83;100305.31;5095306;28;20074;-81